Time;durP1;ratioP1;P1;durP2;ratioP2;P2;SDS_P1;SDS_P2;PMS_P1;PMS_P2;Temp;Humidity;BMP_temperature;BMP_pressure;BME280_temperature;BME280_humidity;BME280_pressure;Samples;Min_cycle;Max_cycle;Signal;HPM_P1;HPM_P2
2023/07/19 00:00:06;;;;;;;5.87;2.20;;;;;;;16.00;96.28;101283.88;4916978;29;20024;-94
2023/07/19 00:02:31;;;;;;;6.63;2.60;;;;;;;16.13;97.02;101310.25;4917244;29;20834;-94
2023/07/19 00:04:57;;;;;;;6.05;2.10;;;;;;;16.19;97.28;101319.13;4920651;29;20032;-94
2023/07/19 00:07:22;;;;;;;8.17;2.20;;;;;;;16.20;96.76;101313.44;4919927;29;20056;-94
2023/07/19 00:09:48;;;;;;;4.80;2.20;;;;;;;16.02;97.33;101295.22;4920701;29;20016;-94
2023/07/19 00:12:13;;;;;;;6.18;2.20;;;;;;;16.13;96.87;101301.34;4918942;29;20477;-94
2023/07/19 00:14:38;;;;;;;5.10;2.40;;;;;;;15.98;98.91;101291.47;4941812;29;20048;-95
2023/07/19 00:17:04;;;;;;;5.20;2.20;;;;;;;16.02;97.81;101308.75;4936229;29;20028;-94
2023/07/19 00:19:29;;;;;;;6.05;2.58;;;;;;;15.90;98.33;101301.00;4927149;29;20016;-95
2023/07/19 00:21:54;;;;;;;5.40;2.20;;;;;;;15.96;97.67;101309.84;4935535;29;20028;-94
2023/07/19 00:24:20;;;;;;;4.17;2.20;;;;;;;15.88;97.75;101287.78;4920848;29;20395;-94
2023/07/19 00:26:45;;;;;;;4.57;2.33;;;;;;;15.92;97.92;101289.88;4919967;29;20043;-95
2023/07/19 00:29:10;;;;;;;7.40;2.30;;;;;;;15.83;98.52;101273.44;4920228;29;20396;-95
2023/07/19 00:31:36;;;;;;;4.63;2.60;;;;;;;15.90;99.24;101284.78;4919487;29;20063;-94
2023/07/19 00:34:01;;;;;;;5.43;2.07;;;;;;;15.90;98.39;101280.16;4919237;29;20304;-94
2023/07/19 00:36:26;;;;;;;3.40;2.37;;;;;;;15.87;99.16;101282.63;4918954;29;20055;-94
2023/07/19 00:38:52;;;;;;;4.17;2.17;;;;;;;15.85;99.43;101268.56;4920058;29;20032;-94
2023/07/19 00:41:18;;;;;;;3.40;2.30;;;;;;;15.75;100.00;101258.66;4920035;29;20032;-94
2023/07/19 00:43:43;;;;;;;5.82;2.42;;;;;;;15.81;100.00;101265.63;4920417;29;20516;-94
2023/07/19 00:46:09;;;;;;;5.82;2.03;;;;;;;15.73;100.00;101253.53;4920083;29;20024;-93
2023/07/19 00:48:35;;;;;;;7.00;2.50;;;;;;;15.68;100.00;101250.06;4919557;29;20096;-95
2023/07/19 00:51:01;;;;;;;6.82;2.47;;;;;;;15.68;100.00;101250.88;4919107;29;20095;-95
2023/07/19 00:53:27;;;;;;;5.07;2.60;;;;;;;15.60;100.00;101238.78;4919997;29;20024;-95
2023/07/19 00:55:53;;;;;;;6.25;2.28;;;;;;;15.61;100.00;101253.09;4918915;29;20468;-93
2023/07/19 00:58:23;;;;;;;4.05;2.15;;;;;;;15.51;100.00;101240.47;4919715;29;20551;-94
2023/07/19 01:00:50;;;;;;;5.70;2.30;;;;;;;15.54;100.00;101250.69;4902209;29;20056;-93
2023/07/19 01:03:16;;;;;;;3.30;2.20;;;;;;;15.35;100.00;101237.06;4923895;29;20032;-93
2023/07/19 01:05:43;;;;;;;4.97;2.17;;;;;;;15.45;100.00;101257.78;4921288;29;20320;-94
2023/07/19 01:08:08;;;;;;;5.00;2.33;;;;;;;15.36;100.00;101259.44;4921632;29;20046;-93
2023/07/19 01:10:34;;;;;;;7.57;2.17;;;;;;;15.28;100.00;101250.06;4922881;29;20047;-94
2023/07/19 01:13:04;;;;;;;5.88;2.20;;;;;;;15.21;100.00;101238.78;4919888;29;20087;-94
2023/07/19 01:15:29;;;;;;;3.03;2.00;;;;;;;15.20;100.00;101240.66;4917980;29;20404;-93
2023/07/19 01:17:54;;;;;;;3.63;2.10;;;;;;;15.24;100.00;101239.00;4919084;29;20276;-94
2023/07/19 01:20:20;;;;;;;5.33;2.20;;;;;;;15.25;100.00;101251.41;4918337;29;20024;-93
2023/07/19 01:22:46;;;;;;;4.33;2.17;;;;;;;15.17;100.00;101246.59;4918779;29;20028;-94
2023/07/19 01:25:12;;;;;;;4.10;2.00;;;;;;;15.16;100.00;101238.78;4918520;29;20016;-93
2023/07/19 01:27:37;;;;;;;4.43;1.95;;;;;;;15.19;100.00;101243.63;4919370;29;20083;-94
2023/07/19 01:30:03;;;;;;;7.20;2.23;;;;;;;15.18;100.00;101242.03;4918970;29;20111;-94
2023/07/19 01:32:28;;;;;;;2.47;1.80;;;;;;;15.17;100.00;101230.41;4924483;29;20054;-94
2023/07/19 01:34:54;;;;;;;4.23;2.00;;;;;;;15.21;100.00;101227.97;4950637;29;20064;-94
2023/07/19 01:37:19;;;;;;;4.53;1.77;;;;;;;15.21;100.00;101225.28;4919170;29;20052;-93
2023/07/19 01:39:45;;;;;;;5.17;2.17;;;;;;;15.11;100.00;101224.22;4931130;29;20020;-94
2023/07/19 01:42:10;;;;;;;3.40;2.00;;;;;;;15.17;100.00;101227.69;4929464;29;20036;-94
2023/07/19 01:44:36;;;;;;;3.00;2.03;;;;;;;15.17;100.00;101225.00;4921713;29;20036;-94
2023/07/19 01:47:01;;;;;;;5.28;2.47;;;;;;;15.24;100.00;101225.50;4921477;29;20060;-94
2023/07/19 01:49:27;;;;;;;8.67;2.30;;;;;;;15.19;100.00;101222.03;4917755;29;20028;-94
2023/07/19 01:51:52;;;;;;;4.13;2.33;;;;;;;15.25;100.00;101215.50;4918655;29;20096;-95
2023/07/19 01:54:17;;;;;;;4.93;2.30;;;;;;;15.14;100.00;101209.38;4919356;29;20085;-94
2023/07/19 01:56:42;;;;;;;3.63;2.00;;;;;;;15.16;100.00;101215.28;4921731;29;20054;-94
2023/07/19 01:59:08;;;;;;;3.27;2.13;;;;;;;15.14;100.00;101217.50;4918736;29;20556;-94
2023/07/19 02:01:53;;;;;;;4.30;2.15;;;;;;;15.14;100.00;101220.19;5018313;23;20048;-94
2023/07/19 02:04:36;;;;;;;5.97;2.13;;;;;;;14.79;100.00;101178.81;4940189;29;20078;-94
2023/07/19 02:07:02;;;;;;;6.40;2.28;;;;;;;15.06;100.00;101229.69;4952997;28;20087;-95
2023/07/19 02:09:27;;;;;;;5.22;2.30;;;;;;;14.95;100.00;101212.72;4945210;29;20082;-96
2023/07/19 02:11:52;;;;;;;3.80;2.43;;;;;;;15.03;100.00;101213.22;4940169;29;20115;-95
2023/07/19 02:14:18;;;;;;;3.47;2.07;;;;;;;15.01;100.00;101218.09;4954149;29;20027;-93
2023/07/19 02:16:44;;;;;;;6.13;2.20;;;;;;;15.10;100.00;101219.13;4958180;29;20034;-94
2023/07/19 02:19:09;;;;;;;6.17;2.07;;;;;;;15.07;100.00;101211.59;4959391;29;20020;-94
2023/07/19 02:21:35;;;;;;;5.53;2.30;;;;;;;14.99;100.00;101207.56;4960417;29;20047;-95
2023/07/19 02:24:00;;;;;;;5.88;2.30;;;;;;;15.05;100.00;101211.88;4958978;29;20031;-94
2023/07/19 02:26:26;;;;;;;7.23;2.40;;;;;;;15.01;100.00;101201.88;4959410;29;20027;-94
2023/07/19 02:28:51;;;;;;;4.18;1.95;;;;;;;14.99;100.00;101202.19;4948807;29;20043;-94
2023/07/19 02:34:45;;;;;;;6.32;2.63;;;;;;;14.83;100.00;101196.03;6046377;23;20044;-95
2023/07/19 02:37:11;;;;;;;8.18;2.72;;;;;;;14.65;100.00;101162.41;4935836;29;20040;-95
2023/07/19 02:39:36;;;;;;;5.37;2.63;;;;;;;14.76;100.00;101185.56;4940805;29;20020;-94
2023/07/19 02:42:02;;;;;;;4.97;2.87;;;;;;;14.94;100.00;101205.72;4940556;29;20091;-95
2023/07/19 02:44:27;;;;;;;6.70;2.90;;;;;;;14.81;100.00;101182.03;4940985;29;20076;-94
2023/07/19 02:46:52;;;;;;;6.68;3.15;;;;;;;14.97;100.00;101198.94;4937619;29;20083;-95
2023/07/19 02:49:18;;;;;;;5.63;3.00;;;;;;;14.95;100.00;101204.63;4936754;29;20036;-94
2023/07/19 02:51:43;;;;;;;8.90;2.63;;;;;;;14.91;100.00;101203.56;4940088;29;20313;-93
2023/07/19 02:54:08;;;;;;;5.03;3.10;;;;;;;14.96;100.00;101214.34;4940111;29;20028;-94
2023/07/19 02:56:34;;;;;;;6.07;2.83;;;;;;;15.06;100.00;101210.78;4935636;29;20031;-94
2023/07/19 02:58:59;;;;;;;4.33;2.97;;;;;;;15.04;100.00;101201.34;4940932;29;20020;-94
2023/07/19 03:01:24;;;;;;;4.50;2.90;;;;;;;15.17;100.00;101216.91;4941010;29;20292;-95
2023/07/19 03:03:50;;;;;;;5.90;2.80;;;;;;;15.22;100.00;101203.38;4940736;29;20028;-93
2023/07/19 03:06:16;;;;;;;9.30;3.17;;;;;;;15.27;100.00;101207.94;4940218;29;20030;-95
2023/07/19 03:08:43;;;;;;;5.20;3.00;;;;;;;15.25;100.00;101199.31;4940360;29;20079;-95
2023/07/19 03:11:08;;;;;;;11.13;3.05;;;;;;;15.27;100.00;101195.25;4937610;29;20012;-94
2023/07/19 03:13:34;;;;;;;7.97;2.80;;;;;;;15.34;100.00;101205.75;4917837;29;20448;-95
2023/07/19 03:16:01;;;;;;;6.03;2.63;;;;;;;15.38;100.00;101208.69;4917519;29;20028;-95
2023/07/19 03:18:26;;;;;;;6.50;3.10;;;;;;;15.28;100.00;101210.38;4916370;29;20480;-95
2023/07/19 03:20:59;;;;;;;9.83;3.07;;;;;;;15.29;100.00;101214.69;4915338;29;20024;-94
2023/07/19 03:23:26;;;;;;;8.48;2.85;;;;;;;15.41;100.00;101216.22;4915955;29;20091;-95
2023/07/19 03:25:51;;;;;;;5.85;2.88;;;;;;;15.38;100.00;101205.97;4916471;29;20028;-95
2023/07/19 03:28:17;;;;;;;5.47;3.10;;;;;;;15.34;100.00;101203.03;4917080;29;20038;-94
2023/07/19 03:30:42;;;;;;;7.32;2.92;;;;;;;15.46;100.00;101218.91;4917272;29;20056;-94
2023/07/19 03:33:08;;;;;;;5.43;2.70;;;;;;;15.44;100.00;101212.97;4917048;29;20028;-94
2023/07/19 03:35:33;;;;;;;10.52;3.40;;;;;;;15.51;100.00;101226.97;4916105;29;20050;-94
2023/07/19 03:37:58;;;;;;;7.13;3.13;;;;;;;15.53;100.00;101234.78;4916012;29;20466;-95
2023/07/19 03:40:24;;;;;;;6.97;3.10;;;;;;;15.44;100.00;101223.75;4916174;29;20099;-95
2023/07/19 03:42:49;;;;;;;10.73;3.30;;;;;;;15.31;100.00;101230.59;4917128;29;20107;-95
2023/07/19 03:45:15;;;;;;;7.10;2.93;;;;;;;15.10;100.00;101214.53;4916876;29;20044;-95
2023/07/19 03:47:41;;;;;;;6.00;3.38;;;;;;;14.91;100.00;101217.06;4915599;29;20024;-96
2023/07/19 03:50:07;;;;;;;12.23;3.78;;;;;;;14.82;100.00;101219.53;4916851;29;20179;-95
2023/07/19 03:52:32;;;;;;;7.97;3.87;;;;;;;14.71;100.00;101227.94;4917535;29;20025;-96
2023/07/19 03:54:58;;;;;;;14.27;4.13;;;;;;;14.68;100.00;101229.31;4916696;29;20034;-95
2023/07/19 03:57:24;;;;;;;15.70;4.50;;;;;;;14.72;100.00;101226.84;4918753;29;20027;-96
2023/07/19 03:59:49;;;;;;;9.27;3.90;;;;;;;14.73;100.00;101220.38;4923260;29;20050;-95
2023/07/19 04:02:15;;;;;;;11.13;4.30;;;;;;;14.78;100.00;101225.75;4922756;29;20488;-95
2023/07/19 04:04:40;;;;;;;16.33;4.30;;;;;;;14.86;100.00;101230.56;4921851;29;20404;-95
2023/07/19 04:07:06;;;;;;;6.80;3.97;;;;;;;14.90;100.00;101237.03;4919894;29;20714;-96
2023/07/19 04:09:32;;;;;;;9.77;4.20;;;;;;;14.83;100.00;101226.53;4916975;29;20473;-95
2023/07/19 04:11:57;;;;;;;11.38;4.03;;;;;;;14.78;100.00;101215.78;4921419;29;20048;-95
2023/07/19 04:14:22;;;;;;;9.07;3.90;;;;;;;14.88;100.00;101225.72;4934365;29;20488;-95
2023/07/19 04:16:48;;;;;;;10.87;3.83;;;;;;;14.91;100.00;101211.66;4916386;29;20028;-94
2023/07/19 04:19:14;;;;;;;8.93;3.88;;;;;;;15.09;100.00;101218.31;4930321;29;20027;-95
2023/07/19 04:21:39;;;;;;;7.13;3.77;;;;;;;15.11;100.00;101220.75;4926482;29;20032;-95
2023/07/19 04:24:04;;;;;;;8.13;3.93;;;;;;;15.20;100.00;101229.84;4915938;29;20052;-96
2023/07/19 04:26:30;;;;;;;7.25;3.95;;;;;;;15.18;100.00;101217.72;4915282;29;20478;-95
2023/07/19 04:28:57;;;;;;;8.33;3.70;;;;;;;15.28;100.00;101214.94;4916416;29;20024;-95
2023/07/19 04:31:22;;;;;;;7.05;4.00;;;;;;;15.29;100.00;101222.78;4915404;29;20047;-95
2023/07/19 04:33:48;;;;;;;8.50;4.17;;;;;;;15.31;100.00;101219.00;4916659;29;20032;-94
2023/07/19 04:36:15;;;;;;;8.23;3.83;;;;;;;15.29;100.00;101205.78;4918380;29;20108;-95
2023/07/19 04:38:41;;;;;;;8.63;3.90;;;;;;;15.47;100.00;101217.81;4922649;29;20016;-94
2023/07/19 04:41:06;;;;;;;5.68;3.35;;;;;;;15.48;100.00;101224.81;4938916;29;20032;-95
2023/07/19 04:43:32;;;;;;;6.63;3.65;;;;;;;15.55;100.00;101219.09;4923312;29;20091;-95
2023/07/19 04:45:57;;;;;;;4.37;3.43;;;;;;;15.62;100.00;101224.97;4918245;29;20056;-95
2023/07/19 04:48:23;;;;;;;6.47;3.80;;;;;;;15.70;100.00;101226.28;4918957;29;20064;-95
2023/07/19 04:50:56;;;;;;;5.00;3.78;;;;;;;15.83;100.00;101225.63;4920644;29;20032;-95
2023/07/19 04:53:22;;;;;;;7.03;3.83;;;;;;;15.94;100.00;101242.59;4919332;29;20095;-95
2023/07/19 04:55:50;;;;;;;5.10;4.27;;;;;;;15.89;100.00;101235.31;4920820;29;20308;-95
2023/07/19 04:58:15;;;;;;;4.75;3.72;;;;;;;15.85;100.00;101233.44;4920121;29;20059;-96
2023/07/19 05:00:40;;;;;;;6.97;4.30;;;;;;;15.90;100.00;101236.94;4919534;29;20090;-96
2023/07/19 05:03:06;;;;;;;6.20;4.10;;;;;;;15.98;100.00;101243.59;4920628;29;20040;-96
2023/07/19 05:05:31;;;;;;;6.97;4.27;;;;;;;16.00;100.00;101241.44;4919847;29;20284;-96
2023/07/19 05:07:58;;;;;;;5.53;4.10;;;;;;;16.18;100.00;101258.84;4940540;29;20027;-96
2023/07/19 05:10:25;;;;;;;8.10;4.40;;;;;;;16.26;100.00;101251.19;4942005;29;20051;-96
2023/07/19 05:12:51;;;;;;;8.02;4.57;;;;;;;16.25;100.00;101244.19;4942160;29;20004;-96
2023/07/19 05:15:18;;;;;;;10.63;5.30;;;;;;;16.27;100.00;101250.09;4926215;29;20051;-96
2023/07/19 05:17:45;;;;;;;7.22;4.45;;;;;;;16.35;100.00;101257.59;4941459;29;20031;-96
2023/07/19 05:20:10;;;;;;;8.07;4.40;;;;;;;16.46;100.00;101248.28;4926276;29;20016;-96
2023/07/19 05:22:36;;;;;;;7.30;4.80;;;;;;;16.65;100.00;101252.94;4943082;29;20035;-96
2023/07/19 05:25:03;;;;;;;5.50;4.30;;;;;;;16.78;100.00;101252.25;4926553;29;20028;-96
2023/07/19 05:27:28;;;;;;;7.10;4.50;;;;;;;16.90;100.00;101251.81;4942440;29;20051;-96
2023/07/19 05:29:54;;;;;;;9.27;5.00;;;;;;;17.03;100.00;101247.63;4942452;29;20008;-96
2023/07/19 05:32:19;;;;;;;8.05;4.60;;;;;;;17.17;100.00;101255.03;4940866;29;20267;-96
2023/07/19 05:34:45;;;;;;;8.50;4.70;;;;;;;17.26;100.00;101242.44;4937327;29;20040;-96
2023/07/19 05:37:10;;;;;;;8.10;3.93;;;;;;;17.43;100.00;101250.06;4929323;29;20020;-96
2023/07/19 05:39:36;;;;;;;8.20;5.00;;;;;;;17.67;100.00;101247.25;4920360;29;20484;-96
2023/07/19 05:42:02;;;;;;;7.03;4.60;;;;;;;17.93;100.00;101248.72;4914179;29;20032;-96
2023/07/19 05:44:28;;;;;;;10.00;4.68;;;;;;;18.36;100.00;101245.00;4927892;29;20134;-96
2023/07/19 05:46:56;;;;;;;7.80;4.00;;;;;;;18.65;99.82;101246.59;4929732;29;20092;-96
2023/07/19 05:49:22;;;;;;;9.53;4.33;;;;;;;18.82;99.35;101246.00;4931473;29;20028;-96
2023/07/19 05:51:51;;;;;;;6.00;4.43;;;;;;;18.87;99.15;101249.41;4934408;29;20273;-96
2023/07/19 05:54:21;;;;;;;6.38;4.68;;;;;;;18.90;100.00;101250.69;4933268;29;20511;-96
2023/07/19 05:56:47;;;;;;;7.90;4.78;;;;;;;18.89;97.72;101247.19;4913862;29;20103;-96
2023/07/19 05:59:13;;;;;;;8.82;4.90;;;;;;;18.99;95.50;101259.00;4927704;29;20036;-96
2023/07/19 06:01:39;;;;;;;7.00;4.53;;;;;;;18.94;96.32;101246.28;4911168;29;20040;-96
2023/07/19 06:04:07;;;;;;;8.75;5.40;;;;;;;18.99;96.32;101256.28;4932933;29;20043;-96
2023/07/19 06:06:41;;;;;;;9.85;4.85;;;;;;;18.97;94.77;101258.50;4917865;29;20035;-96
2023/07/19 06:09:10;;;;;;;8.93;4.30;;;;;;;18.95;95.17;101255.28;4934361;29;20028;-96
2023/07/19 06:11:42;;;;;;;7.13;5.00;;;;;;;18.89;95.84;101255.34;4932775;29;20092;-96
2023/07/19 06:19:29;;;;;;;7.13;4.30;;;;;;;19.21;92.10;101221.00;4956108;29;20055;-96
2023/07/19 06:24:30;;;;;;;11.02;4.68;;;;;;;20.01;87.84;101214.19;5083417;23;20071;-96
2023/07/19 06:26:56;;;;;;;11.77;4.78;;;;;;;20.35;84.78;101223.63;4960997;29;20104;-96
2023/07/19 06:29:23;;;;;;;14.33;4.97;;;;;;;20.73;82.86;101239.41;4961639;29;20012;-96
2023/07/19 06:31:50;;;;;;;9.63;4.60;;;;;;;20.70;80.52;101214.75;4961532;29;20268;-96
2023/07/19 06:34:17;;;;;;;9.70;4.55;;;;;;;20.93;78.34;101215.44;4984563;23;20130;-96
2023/07/19 06:36:43;;;;;;;8.30;3.90;;;;;;;20.92;77.11;101208.41;4963054;29;20048;-96
2023/07/19 06:44:20;;;;;;;6.57;3.43;;;;;;;20.33;77.51;101223.13;5707754;23;20290;-96
2023/07/19 06:46:45;;;;;;;8.25;3.70;;;;;;;20.21;78.71;101236.53;4987999;23;20055;-96
2023/07/19 08:02:30;;;;;;;6.05;2.90;;;;;;;23.27;61.47;101239.06;4957522;29;20042;-96
2023/07/19 08:04:55;;;;;;;6.18;2.60;;;;;;;23.11;61.09;101209.59;4975337;28;20059;-96
2023/07/19 08:07:21;;;;;;;3.80;2.58;;;;;;;23.20;59.01;101211.44;4959566;29;20012;-96
2023/07/19 08:09:56;;;;;;;8.33;2.40;;;;;;;23.21;58.92;101202.13;4959853;29;20059;-96
2023/07/19 11:03:26;;;;;;;5.38;2.25;;;;;;;29.10;40.87;101215.47;5979261;23;20017;-96
2023/07/19 15:03:53;;;;;;;5.13;2.30;;;;;;;27.38;40.08;101171.16;5376961;23;20335;-94
2023/07/19 18:05:40;;;;;;;4.07;2.03;;;;;;;20.88;68.14;101218.31;5247001;23;20207;31
2023/07/19 18:08:08;;;;;;;6.03;1.88;;;;;;;21.40;67.62;101265.78;4958496;29;20031;-96
2023/07/19 18:54:48;;;;;;;3.60;1.98;;;;;;;20.61;73.25;101244.69;4936427;26;20078;-96
2023/07/19 18:57:14;;;;;;;4.10;2.03;;;;;;;20.65;73.93;101258.44;4946860;29;20456;-96
2023/07/19 18:59:39;;;;;;;6.47;2.30;;;;;;;20.47;74.26;101243.97;4946869;29;20034;-95
2023/07/19 19:02:06;;;;;;;7.03;2.22;;;;;;;20.57;75.76;101263.53;4949165;29;20028;-95
2023/07/19 19:04:32;;;;;;;3.10;2.00;;;;;;;20.41;74.77;101238.69;4950314;29;20043;-94
2023/07/19 19:06:57;;;;;;;2.83;2.10;;;;;;;20.46;76.09;101256.78;4949583;29;20343;-95
2023/07/19 19:09:23;;;;;;;6.40;2.53;;;;;;;20.36;75.56;101238.03;4949761;28;20019;-95
2023/07/19 19:11:49;;;;;;;5.27;2.20;;;;;;;20.43;76.53;101262.84;4949250;29;20031;-95
2023/07/19 19:14:15;;;;;;;3.40;2.40;;;;;;;20.28;76.19;101251.28;4948940;29;20083;-95
2023/07/19 19:16:41;;;;;;;3.83;2.10;;;;;;;20.28;76.94;101253.19;4946439;29;20035;-95
2023/07/19 19:19:09;;;;;;;4.13;2.53;;;;;;;20.03;77.80;101233.72;4948573;29;20040;-96
2023/07/19 19:21:35;;;;;;;5.90;2.63;;;;;;;19.95;77.60;101221.69;4943431;29;20024;-95
2023/07/19 19:24:04;;;;;;;7.18;2.50;;;;;;;19.97;78.60;101235.78;4944126;28;20607;-96
2023/07/19 19:30:30;;;;;;;4.35;2.40;;;;;;;20.13;77.12;101270.75;4949775;29;20042;-96
2023/07/19 19:32:58;;;;;;;6.78;2.75;;;;;;;20.00;78.87;101266.97;4952212;29;20015;-96
2023/07/19 19:35:23;;;;;;;4.32;2.30;;;;;;;19.85;78.81;101246.38;4954206;29;20032;-95
2023/07/19 19:37:50;;;;;;;4.03;2.30;;;;;;;19.87;80.13;101273.28;4952976;29;20023;-96
2023/07/19 19:40:15;;;;;;;5.38;2.33;;;;;;;19.72;80.16;101253.50;4949294;29;20026;-95
2023/07/19 19:42:42;;;;;;;3.43;2.73;;;;;;;19.67;80.33;101259.88;4951095;29;20111;-96
2023/07/19 19:45:08;;;;;;;8.13;2.95;;;;;;;19.64;82.18;101259.69;4951338;29;20071;-96
2023/07/19 19:47:33;;;;;;;4.93;2.53;;;;;;;19.40;81.81;101230.88;4951185;29;20035;-96
2023/07/19 19:49:59;;;;;;;3.67;2.60;;;;;;;19.50;84.73;101260.56;4947243;29;20024;-95
2023/07/19 19:52:24;;;;;;;3.80;2.83;;;;;;;19.59;82.92;101263.34;4948236;29;20016;-95
2023/07/19 19:54:50;;;;;;;4.73;2.67;;;;;;;19.47;84.07;101272.03;4949769;29;20424;-95
2023/07/19 19:57:16;;;;;;;6.73;2.87;;;;;;;19.39;84.22;101258.38;4943896;29;20035;-95
2023/07/19 19:59:42;;;;;;;4.18;3.47;;;;;;;19.42;84.68;101265.91;4943307;29;20024;-96
2023/07/19 20:02:09;;;;;;;4.93;3.10;;;;;;;19.39;84.73;101270.03;4942630;29;20479;-96
2023/07/19 20:04:35;;;;;;;4.32;2.95;;;;;;;19.27;84.90;101258.91;4943721;29;20028;-95
2023/07/19 20:07:10;;;;;;;6.80;3.33;;;;;;;19.34;85.44;101276.41;4957517;29;20011;-94
2023/07/19 20:09:37;;;;;;;5.30;3.40;;;;;;;19.33;86.10;101276.72;5116233;23;20041;-96
2023/07/19 20:14:37;;;;;;;5.80;3.05;;;;;;;19.28;85.96;101282.25;5077235;23;20090;-95
2023/07/19 20:17:27;;;;;;;7.40;3.33;;;;;;;19.20;86.25;101283.78;4954500;29;20071;-95
2023/07/19 20:20:03;;;;;;;3.50;2.40;;;;;;;19.16;86.95;101289.03;4956740;29;20276;-96
2023/07/19 20:22:30;;;;;;;3.95;2.33;;;;;;;19.09;87.64;101293.25;4952902;29;20031;-96
2023/07/19 20:24:55;;;;;;;7.18;2.40;;;;;;;19.00;88.55;101296.69;4953766;29;20498;-96
2023/07/19 20:27:21;;;;;;;6.07;2.20;;;;;;;19.00;88.63;101290.44;4952627;29;20023;-96
2023/07/19 20:29:48;;;;;;;3.35;2.20;;;;;;;18.95;88.80;101288.66;4954241;29;20076;-96
2023/07/19 20:32:15;;;;;;;4.10;2.63;;;;;;;18.76;89.93;101286.03;4960998;29;20092;-95
2023/07/19 20:34:41;;;;;;;5.00;2.42;;;;;;;18.77;89.84;101295.78;4962730;29;20039;-95
2023/07/19 20:37:06;;;;;;;3.70;2.77;;;;;;;18.75;89.29;101281.69;4962828;29;20059;-96
2023/07/19 20:39:31;;;;;;;3.85;2.33;;;;;;;18.71;90.84;101294.25;4962140;28;20061;-96
2023/07/19 20:41:58;;;;;;;6.03;2.97;;;;;;;18.59;90.36;101287.44;4963115;29;20020;-96
2023/07/19 20:44:24;;;;;;;8.90;3.60;;;;;;;18.45;92.43;101287.41;4962788;29;20287;-95
2023/07/19 20:46:49;;;;;;;6.03;3.00;;;;;;;18.41;91.54;101272.06;4952515;29;20028;-96
2023/07/19 20:49:17;;;;;;;5.70;2.70;;;;;;;18.38;92.16;101286.22;4949681;29;20036;-96
2023/07/19 20:51:44;;;;;;;8.32;2.75;;;;;;;18.29;92.71;101291.53;4950515;29;20028;-96
2023/07/19 20:54:11;;;;;;;4.15;2.50;;;;;;;18.21;92.90;101294.91;4948442;29;20039;-96
2023/07/19 20:56:37;;;;;;;3.30;2.35;;;;;;;18.01;94.49;101289.56;4948328;29;20035;-95
2023/07/19 20:59:06;;;;;;;5.50;2.43;;;;;;;17.98;95.40;101292.84;4949197;29;20035;-95
2023/07/19 21:01:32;;;;;;;4.03;2.38;;;;;;;17.81;97.33;101292.56;4949817;29;20035;-96
2023/07/19 21:04:00;;;;;;;9.02;2.53;;;;;;;17.74;97.01;101287.53;4949643;29;20046;-96
2023/07/19 21:06:26;;;;;;;3.78;2.58;;;;;;;17.73;96.99;101276.97;4950662;29;20039;-95
2023/07/19 21:08:53;;;;;;;5.77;2.57;;;;;;;17.66;97.46;101280.88;4951598;29;20020;-96
2023/07/19 21:11:19;;;;;;;4.37;2.53;;;;;;;17.46;98.01;101268.41;4948858;29;20276;-96
2023/07/19 21:13:45;;;;;;;4.10;2.60;;;;;;;17.53;98.76;101282.41;4951252;29;20403;-96
2023/07/19 21:16:11;;;;;;;5.43;2.72;;;;;;;17.46;99.76;101289.31;4957622;29;20019;-96
2023/07/19 21:18:36;;;;;;;5.72;2.22;;;;;;;17.36;99.91;101274.78;4946616;29;20091;-96
2023/07/19 21:21:22;;;;;;;3.00;2.67;;;;;;;17.45;97.92;101298.53;4963175;29;20031;-93
2023/07/19 21:23:48;;;;;;;4.90;2.65;;;;;;;17.40;100.00;101296.69;4961712;29;20050;-96
2023/07/19 21:26:13;;;;;;;6.47;2.67;;;;;;;17.35;100.00;101294.06;4961408;29;20085;-96
2023/07/19 21:28:39;;;;;;;6.47;2.43;;;;;;;17.35;100.00;101277.81;4961444;29;20091;-96
2023/07/19 21:31:04;;;;;;;4.30;2.30;;;;;;;17.35;100.00;101275.09;4960735;29;20024;-96
2023/07/19 21:33:30;;;;;;;5.30;2.20;;;;;;;17.41;100.00;101276.66;4961902;29;20016;-95
2023/07/19 21:35:56;;;;;;;5.13;2.43;;;;;;;17.55;100.00;101287.53;4961612;29;20299;-96
2023/07/19 21:38:22;;;;;;;5.82;2.75;;;;;;;17.65;99.97;101281.16;4961495;29;20075;-96
2023/07/19 21:40:48;;;;;;;4.43;2.17;;;;;;;17.65;99.38;101275.72;4960928;29;20023;-96
2023/07/19 21:50:58;;;;;;;4.20;2.65;;;;;;;17.75;98.53;101274.75;5339423;23;20055;-95
2023/07/19 21:53:24;;;;;;;3.90;2.53;;;;;;;17.72;98.08;101276.16;4948259;29;20038;-95
2023/07/19 21:55:49;;;;;;;4.10;2.60;;;;;;;17.86;97.44;101289.78;4943989;29;20024;-96
2023/07/19 21:58:15;;;;;;;4.33;2.30;;;;;;;17.79;98.24;101286.63;4944008;29;20065;-96
2023/07/19 22:00:45;;;;;;;5.55;2.70;;;;;;;17.84;98.30;101286.56;4941792;29;20099;-96
2023/07/19 22:03:12;;;;;;;4.13;2.50;;;;;;;17.86;98.38;101292.50;4941870;29;20032;-96
2023/07/19 22:05:41;;;;;;;3.83;2.50;;;;;;;17.85;97.58;101294.38;4942344;29;20291;-96
2023/07/19 22:08:07;;;;;;;3.80;2.40;;;;;;;17.87;97.65;101296.81;4942893;29;20467;-95
2023/07/19 22:10:36;;;;;;;3.42;2.22;;;;;;;17.81;98.36;101287.16;4941982;29;20023;-96
2023/07/19 22:13:03;;;;;;;2.78;2.22;;;;;;;17.81;97.75;101284.44;4942283;29;20628;-96
2023/07/19 22:15:29;;;;;;;4.18;2.22;;;;;;;17.90;97.65;101298.13;4941994;29;20031;-96
2023/07/19 22:18:10;;;;;;;2.85;2.13;;;;;;;17.89;96.68;101291.09;4941270;29;20027;-96
2023/07/19 22:20:36;;;;;;;4.43;2.17;;;;;;;17.76;98.06;101288.03;4942580;29;20034;-95
2023/07/19 22:23:02;;;;;;;4.95;2.35;;;;;;;17.86;98.90;101293.28;4942173;29;20027;-96
2023/07/19 22:25:29;;;;;;;2.25;1.70;;;;;;;17.87;97.79;101291.38;4943813;29;20032;-96
2023/07/19 22:27:54;;;;;;;5.63;2.30;;;;;;;17.82;98.62;101286.84;4946161;29;20111;-96
2023/07/19 22:30:19;;;;;;;3.50;2.20;;;;;;;17.70;98.20;101270.25;4945499;29;20329;-95
2023/07/19 22:32:45;;;;;;;3.37;2.33;;;;;;;17.66;99.65;101272.75;4946099;29;20051;-96
2023/07/19 22:35:10;;;;;;;7.80;2.30;;;;;;;17.71;99.21;101283.47;4945708;29;20039;-95
2023/07/19 22:37:35;;;;;;;3.27;2.50;;;;;;;17.55;100.00;101277.50;4943754;29;20364;-96
2023/07/19 22:40:02;;;;;;;4.28;2.17;;;;;;;17.51;100.00;101287.31;4943888;29;20106;-96
2023/07/19 22:42:27;;;;;;;3.17;2.37;;;;;;;17.40;100.00;101272.31;4946564;29;20023;-94
2023/07/19 22:44:52;;;;;;;3.90;2.40;;;;;;;17.46;100.00;101290.09;4957104;29;20271;-95
2023/07/19 22:47:18;;;;;;;2.80;2.30;;;;;;;17.43;100.00;101279.03;4960748;29;20129;-95
2023/07/19 22:49:45;;;;;;;3.60;2.40;;;;;;;17.40;100.00;101283.16;4960335;29;20020;-95
2023/07/19 22:52:10;;;;;;;4.47;2.42;;;;;;;17.42;100.00;101289.09;4959473;29;20032;-95
2023/07/19 22:54:35;;;;;;;3.13;2.37;;;;;;;17.26;100.00;101274.94;4960774;29;20083;-95
2023/07/19 22:57:01;;;;;;;5.35;2.50;;;;;;;17.20;100.00;101276.94;4960201;29;20136;-95
2023/07/19 22:59:26;;;;;;;5.30;2.63;;;;;;;17.10;100.00;101283.28;4960103;29;20019;-95
2023/07/19 23:01:52;;;;;;;3.93;2.57;;;;;;;17.00;100.00;101277.97;4959964;29;20012;-95
2023/07/19 23:04:17;;;;;;;4.30;2.47;;;;;;;16.91;100.00;101280.50;4959793;29;20024;-95
2023/07/19 23:06:42;;;;;;;4.57;2.63;;;;;;;16.87;100.00;101289.50;4960000;29;20376;-94
2023/07/19 23:09:08;;;;;;;3.77;2.57;;;;;;;16.80;100.00;101281.72;4956674;29;20016;-95
2023/07/19 23:11:37;;;;;;;5.53;2.60;;;;;;;16.78;100.00;101290.16;4954637;29;20028;-96
2023/07/19 23:14:03;;;;;;;3.72;2.40;;;;;;;16.61;100.00;101270.88;4940499;29;20649;-96
2023/07/19 23:16:28;;;;;;;4.63;2.60;;;;;;;16.62;100.00;101285.97;4941647;29;20039;-95
2023/07/19 23:19:00;;;;;;;7.05;2.50;;;;;;;16.53;100.00;101279.59;4940253;29;20031;-96
2023/07/19 23:21:25;;;;;;;4.03;2.60;;;;;;;16.40;100.00;101276.50;4940046;29;20024;-96
2023/07/19 23:23:51;;;;;;;4.50;2.80;;;;;;;16.29;100.00;101277.66;4937700;29;20287;-95
2023/07/19 23:26:22;;;;;;;4.60;2.97;;;;;;;16.29;100.00;101270.38;4939830;29;20047;-96
2023/07/19 23:28:48;;;;;;;7.18;3.17;;;;;;;16.17;100.00;101267.22;4938116;29;20083;-94
2023/07/19 23:31:17;;;;;;;4.32;3.05;;;;;;;16.22;100.00;101280.72;4939239;29;20064;-96